SAS604 LSZH-EKCH
Flight info
| Callsign | SAS604 |
|---|---|
| Flight time | N/A |
| Altitude | 36000 |
| Route | DEGES Z1 ETAGO DCT HAREM/N0432F370 DCT LOHRE DCT BERXO DCT MAKEL N851 GESKA/N0437F380 Z711 MONAK |
| Aircraft | CRJ9/M-SDFGIRWXYE3/EB1 |
Departure
| Time | 2026-02-18 22:30 |
|---|---|
| Airport | Zürich Airport (LSZH) |
Arrival
| Time | N/A |
|---|---|
| Airport | Copenhagen Kastrup Airport (EKCH) |
| Time | Latitude | Longitude | Altitude | Speed | Heading |
|---|---|---|---|---|---|
| 2026-02-18 22:07 | 47.44460 | 8.56129 | 1424 ft | 0 kts | 245° |
| 2026-02-18 22:22 | 47.44453 | 8.56106 | 1405 ft | 7 kts | 245° |
| 2026-02-18 22:23 | 47.44441 | 8.56037 | 1397 ft | 7 kts | 295° |
| 2026-02-18 22:23 | 47.44489 | 8.55994 | 1398 ft | 12 kts | 335° |
| 2026-02-18 22:23 | 47.44575 | 8.55936 | 1402 ft | 15 kts | 335° |
| 2026-02-18 22:23 | 47.44677 | 8.55865 | 1394 ft | 17 kts | 335° |
| 2026-02-18 22:24 | 47.44785 | 8.55790 | 1398 ft | 17 kts | 335° |
| 2026-02-18 22:24 | 47.44892 | 8.55716 | 1397 ft | 17 kts | 335° |
| 2026-02-18 22:24 | 47.44994 | 8.55645 | 1401 ft | 15 kts | 335° |
| 2026-02-18 22:24 | 47.45087 | 8.55584 | 1404 ft | 14 kts | 337° |
| 2026-02-18 22:25 | 47.45270 | 8.55463 | 1406 ft | 15 kts | 334° |
| 2026-02-18 22:25 | 47.45353 | 8.55402 | 1407 ft | 16 kts | 333° |
| 2026-02-18 22:25 | 47.45445 | 8.55338 | 1399 ft | 17 kts | 338° |
| 2026-02-18 22:26 | 47.45544 | 8.55356 | 1406 ft | 13 kts | 72° |
| 2026-02-18 22:26 | 47.45538 | 8.55465 | 1403 ft | 10 kts | 104° |
| 2026-02-18 22:26 | 47.45522 | 8.55572 | 1407 ft | 10 kts | 96° |
| 2026-02-18 22:26 | 47.45516 | 8.55670 | 1409 ft | 10 kts | 95° |
| 2026-02-18 22:27 | 47.45506 | 8.55807 | 1411 ft | 20 kts | 96° |
| 2026-02-18 22:27 | 47.45489 | 8.56033 | 1407 ft | 22 kts | 96° |
| 2026-02-18 22:27 | 47.45499 | 8.56251 | 1415 ft | 21 kts | 53° |
| 2026-02-18 22:27 | 47.45584 | 8.56406 | 1414 ft | 18 kts | 59° |
| 2026-02-18 22:28 | 47.45588 | 8.56584 | 1415 ft | 17 kts | 96° |
| 2026-02-18 22:28 | 47.45576 | 8.56730 | 1422 ft | 15 kts | 96° |
| 2026-02-18 22:28 | 47.45566 | 8.56876 | 1418 ft | 13 kts | 95° |
| 2026-02-18 22:28 | 47.45580 | 8.56996 | 1420 ft | 11 kts | 43° |
| 2026-02-18 22:29 | 47.45665 | 8.56988 | 1423 ft | 6 kts | 270° |
| 2026-02-18 22:29 | 47.45666 | 8.56959 | 1422 ft | 1 kts | 276° |
| 2026-02-18 22:29 | 47.45667 | 8.56937 | 1422 ft | 4 kts | 276° |
| 2026-02-18 22:30 | 47.45693 | 8.56559 | 1416 ft | 76 kts | 276° |
| 2026-02-18 22:30 | 47.45776 | 8.55417 | 1398 ft | 143 kts | 276° |
| 2026-02-18 22:30 | 47.45905 | 8.53773 | 1735 ft | 166 kts | 277° |
| 2026-02-18 22:30 | 47.46046 | 8.51967 | 2463 ft | 187 kts | 277° |
| 2026-02-18 22:31 | 47.46220 | 8.49852 | 2764 ft | 233 kts | 277° |
| 2026-02-18 22:31 | 47.46383 | 8.47299 | 3202 ft | 262 kts | 274° |
| 2026-02-18 22:31 | 47.46551 | 8.44576 | 4111 ft | 272 kts | 275° |
| 2026-02-18 22:31 | 47.46764 | 8.41880 | 5561 ft | 237 kts | 275° |
| 2026-02-18 22:32 | 47.46889 | 8.39507 | 6760 ft | 242 kts | 260° |
| 2026-02-18 22:32 | 47.46406 | 8.36952 | 6759 ft | 282 kts | 253° |
| 2026-02-18 22:32 | 47.46174 | 8.33734 | 6193 ft | 345 kts | 270° |
| 2026-02-18 22:32 | 47.46262 | 8.30476 | 7672 ft | 286 kts | 252° |
| 2026-02-18 22:33 | 47.43152 | 8.28264 | 7891 ft | 291 kts | 170° |
| 2026-02-18 22:33 | 47.41415 | 8.29621 | 8527 ft | 277 kts | 144° |
| 2026-02-18 22:33 | 47.40328 | 8.31962 | 8658 ft | 289 kts | 115° |
| 2026-02-18 22:34 | 47.40099 | 8.35099 | 7927 ft | 332 kts | 84° |
| 2026-02-18 22:34 | 47.40908 | 8.38588 | 7243 ft | 391 kts | 59° |
| 2026-02-18 22:34 | 47.42232 | 8.41106 | 8768 ft | 245 kts | 49° |
| 2026-02-18 22:34 | 47.43277 | 8.42954 | 9942 ft | 247 kts | 47° |
| 2026-02-18 22:35 | 47.44484 | 8.44987 | 10196 ft | 272 kts | 46° |
| 2026-02-18 22:35 | 47.45729 | 8.47035 | 11191 ft | 259 kts | 45° |
| 2026-02-18 22:35 | 47.46881 | 8.48897 | 12452 ft | 234 kts | 44° |
| 2026-02-18 22:35 | 47.47984 | 8.50609 | 13291 ft | 231 kts | 40° |
| 2026-02-18 22:36 | 47.49323 | 8.52225 | 13312 ft | 266 kts | 30° |
| 2026-02-18 22:36 | 47.51022 | 8.53661 | 13032 ft | 308 kts | 21° |
| 2026-02-18 22:36 | 47.53072 | 8.54955 | 13331 ft | 327 kts | 16° |
| 2026-02-18 22:36 | 47.55170 | 8.56103 | 14373 ft | 312 kts | 15° |